Terminal Aerodrome Forecast
Issued by NWS Billings, MT

Home | Current Version | Previous Version | Text Only | Print | Product List | Glossary On
Versions: 1 2 3 4 5 6 7 8 9 10 11 12 13 14 15 16 17 18 19
000
FTUS45 KBYZ 280411 AAA
TAFMLS
TAF AMD
KMLS 280411Z 2804/2824 06011KT 6SM -RASN BR SCT007 OVC025
      TEMPO 2804/2806 4SM -SN BR BKN005
     FM280600 06007KT 3SM -SN BR SCT004 BKN005 OVC012
     FM281600 07008KT 6SM -RA BR SCT008 OVC025=

USA.gov is the U.S. government's official web portal to all federal, state and local government web resources and services.